createdAt,value
2023-02-25T00:02:03.250Z,81.40
2023-02-25T00:04:32.653Z,81.70
2023-02-25T00:07:02.706Z,81.90
2023-02-25T00:09:31.871Z,82.00
2023-02-25T00:12:00.562Z,82.70
2023-02-25T00:14:29.616Z,83.00
2023-02-25T00:16:58.213Z,83.90
2023-02-25T00:19:27.522Z,84.00
2023-02-25T00:21:55.992Z,84.10
2023-02-25T00:24:25.783Z,84.10
2023-02-25T00:26:54.301Z,84.10
2023-02-25T00:29:23.197Z,84.40
2023-02-25T00:31:51.925Z,84.60
2023-02-25T00:34:20.472Z,84.90
2023-02-25T00:36:50.532Z,85.10
2023-02-25T00:39:19.297Z,85.50
2023-02-25T00:41:50.197Z,86.00
2023-02-25T00:44:19.903Z,86.00
2023-02-25T00:46:48.493Z,85.80
2023-02-25T00:49:31.479Z,85.40
2023-02-25T00:52:00.769Z,85.20
2023-02-25T00:54:29.586Z,84.80
2023-02-25T00:56:59.367Z,84.80
2023-02-25T00:59:28.026Z,84.50
2023-02-25T01:01:56.434Z,84.20
2023-02-25T01:04:25.163Z,83.70
2023-02-25T01:06:55.327Z,83.40
2023-02-25T01:09:24.256Z,83.00
2023-02-25T01:11:52.643Z,82.50
2023-02-25T01:14:24.542Z,82.20
2023-02-25T01:16:56.216Z,81.70
2023-02-25T01:19:27.114Z,81.30
2023-02-25T01:21:57.421Z,80.80
2023-02-25T01:24:27.614Z,80.20
2023-02-25T01:26:58.975Z,79.70
2023-02-25T01:29:30.971Z,79.30
2023-02-25T01:32:02.498Z,78.90
2023-02-25T01:34:32.091Z,78.70
2023-02-25T01:37:03.937Z,78.50
2023-02-25T01:39:33.562Z,78.40
2023-02-25T01:42:05.382Z,78.30
2023-02-25T01:44:38.974Z,78.30
2023-02-25T01:47:08.141Z,78.30
2023-02-25T01:49:42.630Z,78.30
2023-02-25T01:52:16.798Z,78.50
2023-02-25T01:54:48.712Z,78.70
2023-02-25T01:57:19.989Z,78.90
2023-02-25T01:59:51.470Z,79.00
2023-02-25T02:02:23.422Z,79.30
2023-02-25T02:04:54.889Z,79.60
2023-02-25T02:07:24.654Z,79.70
2023-02-25T02:09:57.246Z,79.80
2023-02-25T02:12:26.862Z,79.90
2023-02-25T02:14:58.246Z,80.00
2023-02-25T02:17:34.588Z,80.20
2023-02-25T02:20:16.057Z,80.30
2023-02-25T02:23:06.097Z,80.10
2023-02-25T02:26:05.066Z,80.00
2023-02-25T02:29:02.627Z,80.10
2023-02-25T02:31:49.180Z,80.10
2023-02-25T02:34:30.309Z,80.00
2023-02-25T02:37:11.397Z,79.90
2023-02-25T02:39:50.888Z,79.80
2023-02-25T02:42:27.603Z,79.80
2023-02-25T02:45:03.812Z,79.60
2023-02-25T02:47:37.219Z,79.40
2023-02-25T02:50:11.583Z,79.50
2023-02-25T02:52:43.991Z,79.30
2023-02-25T02:55:22.357Z,79.30
2023-02-25T02:57:56.849Z,79.20
2023-02-25T03:00:30.472Z,79.10
2023-02-25T03:03:08.360Z,79.10
2023-02-25T03:05:39.362Z,79.10
2023-02-25T03:08:11.540Z,78.80
2023-02-25T03:10:40.001Z,78.80
2023-02-25T03:13:08.500Z,79.00
2023-02-25T03:15:39.638Z,79.40
2023-02-25T03:18:19.312Z,79.70
2023-02-25T03:20:50.527Z,80.20
2023-02-25T03:23:23.474Z,80.80
2023-02-25T03:25:56.437Z,81.80
2023-02-25T03:28:31.056Z,82.70
2023-02-25T03:31:06.556Z,83.70
2023-02-25T03:33:48.579Z,84.40
2023-02-25T03:36:23.339Z,85.20
2023-02-25T03:38:56.486Z,86.10
2023-02-25T03:41:31.422Z,87.10
2023-02-25T03:44:01.373Z,88.20
2023-02-25T03:46:31.219Z,89.30
2023-02-25T03:49:02.945Z,90.10
2023-02-25T03:51:38.305Z,90.50
2023-02-25T03:54:07.638Z,90.80
2023-02-25T03:56:46.096Z,91.20
2023-02-25T03:59:14.729Z,91.50
2023-02-25T04:01:45.985Z,92.20
2023-02-25T04:04:15.788Z,92.10
2023-02-25T04:06:44.223Z,92.40
2023-02-25T04:09:12.875Z,92.70
2023-02-25T04:11:41.230Z,93.00
2023-02-25T04:14:09.894Z,93.30
2023-02-25T04:16:38.501Z,93.40
2023-02-25T04:19:07.052Z,93.70
2023-02-25T04:21:38.059Z,93.90
2023-02-25T04:24:07.851Z,94.10
2023-02-25T04:26:36.530Z,94.30
2023-02-25T04:29:05.510Z,94.50
2023-02-25T04:31:34.133Z,94.60
2023-02-25T04:34:02.540Z,94.70
2023-02-25T04:36:32.676Z,94.80
2023-02-25T04:39:04.763Z,95.00
2023-02-25T04:41:35.540Z,95.30
2023-02-25T04:44:05.311Z,95.40
2023-02-25T04:46:35.039Z,95.60
2023-02-25T04:49:04.400Z,95.70
2023-02-25T04:51:32.778Z,95.90
2023-02-25T04:54:02.532Z,96.10
2023-02-25T04:56:30.974Z,96.40
2023-02-25T04:58:59.916Z,96.70
2023-02-25T05:01:28.351Z,96.90
2023-02-25T05:03:57.292Z,97.20
2023-02-25T05:06:26.127Z,97.40
2023-02-25T05:08:54.602Z,97.80
2023-02-25T05:11:25.073Z,98.10
2023-02-25T05:13:55.686Z,98.40
2023-02-25T05:16:24.860Z,99.10
2023-02-25T05:18:54.569Z,99.10
2023-02-25T05:21:25.517Z,99.30
2023-02-25T05:23:54.566Z,99.60
2023-02-25T05:26:26.566Z,99.70
2023-02-25T05:28:57.534Z,99.80
2023-02-25T05:31:26.521Z,99.90
2023-02-25T05:33:55.492Z,99.90
2023-02-25T05:36:27.850Z,99.90
2023-02-25T05:38:59.115Z,99.90
2023-02-25T05:41:28.806Z,99.90
2023-02-25T05:43:58.324Z,99.90
2023-02-25T05:46:27.424Z,99.90
2023-02-25T05:48:56.098Z,99.90
2023-02-25T05:51:24.867Z,99.90
2023-02-25T05:53:53.962Z,99.90
2023-02-25T05:56:25.646Z,99.90
2023-02-25T05:58:55.837Z,99.90
2023-02-25T06:01:27.813Z,99.90
2023-02-25T06:03:58.690Z,99.80
2023-02-25T06:06:28.873Z,99.80
2023-02-25T06:08:57.558Z,99.80
2023-02-25T06:11:28.010Z,99.70
2023-02-25T06:13:59.459Z,99.60
2023-02-25T06:16:32.521Z,99.60
2023-02-25T06:19:02.228Z,99.60
2023-02-25T06:21:31.041Z,99.60
2023-02-25T06:23:59.540Z,99.50
2023-02-25T06:26:28.166Z,99.40
2023-02-25T06:28:58.539Z,99.40
2023-02-25T06:31:27.580Z,99.30
2023-02-25T06:33:56.233Z,99.60
2023-02-25T06:36:25.009Z,99.20
2023-02-25T06:38:53.685Z,99.20
2023-02-25T06:41:23.660Z,99.20
2023-02-25T06:43:52.851Z,99.10
2023-02-25T06:46:25.036Z,99.10
2023-02-25T06:48:54.520Z,99.20
2023-02-25T06:51:23.066Z,99.20
2023-02-25T06:53:53.122Z,99.20
2023-02-25T06:56:22.738Z,99.20
2023-02-25T06:58:52.830Z,99.20
2023-02-25T07:01:22.668Z,99.20
2023-02-25T07:03:51.245Z,99.20
2023-02-25T07:06:20.667Z,99.10
2023-02-25T07:08:49.235Z,98.90
2023-02-25T07:11:30.640Z,98.80
2023-02-25T07:13:59.230Z,98.60
2023-02-25T07:16:30.352Z,98.50
2023-02-25T07:19:02.408Z,98.40
2023-02-25T07:21:31.527Z,98.50
2023-02-25T07:24:00.230Z,98.60
2023-02-25T07:26:29.401Z,98.70
2023-02-25T07:28:59.337Z,98.60
2023-02-25T07:31:30.060Z,98.50
2023-02-25T07:34:03.511Z,98.40
2023-02-25T07:36:33.230Z,98.10
2023-02-25T07:39:04.189Z,97.80
2023-02-25T07:41:32.683Z,97.50
2023-02-25T07:44:04.694Z,97.20
2023-02-25T07:46:34.906Z,97.10
2023-02-25T07:49:03.565Z,96.90
2023-02-25T07:51:32.127Z,96.70
2023-02-25T07:54:00.692Z,96.60
2023-02-25T07:56:30.930Z,96.70
2023-02-25T07:58:59.337Z,96.80
2023-02-25T08:01:30.029Z,97.20
2023-02-25T08:04:04.205Z,97.40
2023-02-25T08:06:32.820Z,97.20
2023-02-25T08:09:01.173Z,97.00
2023-02-25T08:11:29.599Z,96.70
2023-02-25T08:13:58.018Z,96.50
2023-02-25T08:16:26.330Z,96.30
2023-02-25T08:18:55.438Z,96.10
2023-02-25T08:21:25.522Z,95.70
2023-02-25T08:23:55.272Z,95.50
2023-02-25T08:26:25.774Z,95.20
2023-02-25T08:28:54.517Z,95.20
2023-02-25T08:31:24.572Z,96.10
2023-02-25T08:33:53.966Z,98.20
2023-02-25T08:36:26.696Z,99.60
2023-02-25T08:38:57.493Z,99.50
2023-02-25T08:41:27.427Z,99.10
2023-02-25T08:43:57.659Z,99.40
2023-02-25T08:46:28.742Z,99.40
2023-02-25T08:48:57.658Z,99.40
2023-02-25T08:51:34.480Z,98.90
2023-02-25T08:54:06.852Z,97.90
2023-02-25T08:56:36.382Z,98.00
2023-02-25T08:59:06.312Z,96.20
2023-02-25T09:01:45.911Z,91.40
2023-02-25T09:04:15.315Z,84.60
2023-02-25T09:06:47.583Z,79.00
2023-02-25T09:09:16.454Z,74.60
2023-02-25T09:11:46.121Z,70.70
2023-02-25T09:14:14.819Z,66.40
2023-02-25T09:16:43.302Z,62.60
2023-02-25T09:19:12.785Z,58.90
2023-02-25T09:21:41.512Z,57.10
2023-02-25T09:24:11.981Z,55.80
2023-02-25T09:26:40.425Z,54.80
2023-02-25T09:29:09.441Z,54.20
2023-02-25T09:31:40.037Z,53.90
2023-02-25T09:34:09.981Z,53.20
2023-02-25T09:36:38.666Z,51.50
2023-02-25T09:39:10.585Z,50.10
2023-02-25T09:41:50.072Z,48.80
2023-02-25T09:44:23.500Z,48.40
2023-02-25T09:46:56.812Z,47.10
2023-02-25T09:49:33.450Z,45.20
2023-02-25T09:52:07.010Z,44.40
2023-02-25T09:54:39.580Z,44.90
2023-02-25T09:57:13.743Z,44.80
2023-02-25T09:59:42.126Z,44.80
2023-02-25T10:02:28.236Z,44.80
2023-02-25T10:05:21.712Z,44.20
2023-02-25T10:08:04.819Z,43.10
2023-02-25T10:10:42.348Z,42.20
2023-02-25T10:13:27.273Z,41.60
2023-02-25T10:16:03.913Z,41.90
2023-02-25T10:18:48.098Z,41.80
2023-02-25T10:21:30.799Z,39.90
2023-02-25T10:24:24.050Z,39.60
2023-02-25T10:26:59.534Z,39.00
2023-02-25T10:29:35.207Z,38.90
2023-02-25T10:32:17.438Z,38.40
2023-02-25T10:34:46.883Z,36.70
2023-02-25T10:37:21.575Z,36.80
2023-02-25T10:40:00.092Z,36.50
2023-02-25T10:42:29.067Z,36.40
2023-02-25T10:45:08.309Z,35.40
2023-02-25T10:47:39.187Z,34.20
2023-02-25T10:50:20.336Z,33.60
2023-02-25T10:53:01.386Z,33.00
2023-02-25T10:55:51.864Z,32.40
2023-02-25T10:58:27.988Z,33.90
2023-02-25T11:01:05.159Z,33.80
2023-02-25T11:03:39.248Z,33.20
2023-02-25T11:06:14.467Z,33.60
2023-02-25T11:08:44.237Z,33.80
2023-02-25T11:11:19.696Z,35.20
2023-02-25T11:14:00.612Z,34.80
2023-02-25T11:16:31.793Z,34.10
2023-02-25T11:19:03.045Z,34.30
2023-02-25T11:21:35.801Z,33.90
2023-02-25T11:24:11.833Z,33.40
2023-02-25T11:26:45.070Z,33.10
2023-02-25T11:29:18.997Z,32.90
2023-02-25T11:31:52.598Z,32.50
2023-02-25T11:34:23.697Z,33.60
2023-02-25T11:36:52.692Z,34.20
2023-02-25T11:39:23.997Z,34.10
2023-02-25T11:41:55.089Z,34.00
2023-02-25T11:44:30.798Z,34.10
2023-02-25T11:47:08.491Z,34.40
2023-02-25T11:49:58.285Z,34.90
2023-02-25T11:52:34.297Z,34.80
2023-02-25T11:55:15.313Z,34.90
2023-02-25T11:57:56.153Z,35.10
2023-02-25T12:00:28.773Z,35.50
2023-02-25T12:03:19.507Z,36.30
2023-02-25T12:06:01.363Z,37.30
2023-02-25T12:08:42.912Z,37.80
2023-02-25T12:11:44.395Z,38.40
2023-02-25T12:15:13.210Z,39.00
2023-02-25T12:18:26.341Z,39.60
2023-02-25T12:21:35.557Z,39.80
2023-02-25T12:24:24.876Z,39.90
2023-02-25T12:27:23.964Z,39.90
2023-02-25T12:30:22.684Z,40.20
2023-02-25T12:33:04.656Z,40.40
2023-02-25T12:35:50.853Z,40.20
2023-02-25T12:39:09.350Z,40.10
2023-02-25T12:41:45.857Z,40.20
2023-02-25T12:44:56.500Z,40.30
2023-02-25T12:47:40.491Z,41.20
2023-02-25T12:50:30.557Z,41.20
2023-02-25T12:53:24.886Z,41.30
2023-02-25T12:56:15.545Z,41.70
2023-02-25T12:59:01.415Z,42.10
2023-02-25T13:01:44.028Z,42.50
2023-02-25T13:04:39.704Z,42.80
2023-02-25T13:07:41.168Z,43.20
2023-02-25T13:10:34.586Z,43.50
2023-02-25T13:13:23.185Z,43.70
2023-02-25T13:16:02.413Z,43.60
2023-02-25T13:18:48.478Z,43.80
2023-02-25T13:21:31.069Z,43.90
2023-02-25T13:24:21.536Z,44.00
2023-02-25T13:27:16.083Z,44.30
2023-02-25T13:30:05.081Z,44.70
2023-02-25T13:32:43.467Z,45.10
2023-02-25T13:35:24.028Z,44.80
2023-02-25T13:38:03.473Z,44.50
2023-02-25T13:40:47.889Z,44.50
2023-02-25T13:43:55.191Z,43.90
2023-02-25T13:46:50.779Z,43.60
2023-02-25T13:50:12.978Z,43.30
2023-02-25T13:52:55.534Z,42.00
2023-02-25T13:56:00.983Z,41.50
2023-02-25T13:58:46.564Z,40.70
2023-02-25T14:01:30.873Z,40.10
2023-02-25T14:04:26.221Z,40.10
2023-02-25T14:07:17.897Z,40.10
2023-02-25T14:09:54.660Z,40.30
2023-02-25T14:12:44.004Z,41.20
2023-02-25T14:15:44.739Z,40.90
2023-02-25T14:18:38.977Z,41.00
2023-02-25T14:21:34.716Z,41.30
2023-02-25T14:24:08.844Z,41.60
2023-02-25T14:26:47.086Z,42.50
2023-02-25T14:29:26.745Z,42.80
2023-02-25T14:32:19.475Z,43.10
2023-02-25T14:35:03.199Z,43.20
2023-02-25T14:37:40.233Z,43.30
2023-02-25T14:40:31.088Z,43.70
2023-02-25T14:43:21.982Z,44.00
2023-02-25T14:45:55.917Z,44.30
2023-02-25T14:48:30.043Z,44.30
2023-02-25T14:51:22.729Z,44.50
2023-02-25T14:54:09.670Z,44.70
2023-02-25T14:56:53.137Z,45.20
2023-02-25T14:59:52.783Z,46.50
2023-02-25T15:02:47.848Z,46.00
2023-02-25T15:06:00.778Z,45.20
2023-02-25T15:08:58.210Z,44.70
2023-02-25T15:11:44.353Z,44.10
2023-02-25T15:14:52.017Z,43.50
2023-02-25T15:18:05.769Z,42.50
2023-02-25T15:20:39.077Z,41.50
2023-02-25T15:23:10.317Z,40.00
2023-02-25T15:25:48.610Z,39.40
2023-02-25T15:28:38.927Z,39.00
2023-02-25T15:31:34.605Z,39.10
2023-02-25T15:34:37.122Z,39.10
2023-02-25T15:37:28.217Z,39.30
2023-02-25T15:39:57.883Z,39.40
2023-02-25T15:42:49.501Z,39.80
2023-02-25T15:45:44.155Z,40.20
2023-02-25T15:48:34.392Z,41.50
2023-02-25T15:51:06.421Z,41.90
2023-02-25T15:53:48.342Z,42.20
2023-02-25T15:56:44.866Z,42.60
2023-02-25T15:59:33.203Z,43.00
2023-02-25T16:02:02.869Z,43.40
2023-02-25T16:04:48.968Z,43.80
2023-02-25T16:07:20.840Z,44.30
2023-02-25T16:09:55.827Z,44.60
2023-02-25T16:12:24.978Z,45.40
2023-02-25T16:14:54.720Z,46.00
2023-02-25T16:17:30.762Z,46.50
2023-02-25T16:20:06.961Z,46.90
2023-02-25T16:22:36.808Z,47.20
2023-02-25T16:25:06.298Z,47.40
2023-02-25T16:27:50.120Z,47.50
2023-02-25T16:30:23.771Z,47.90
2023-02-25T16:33:01.750Z,48.10
2023-02-25T16:35:35.734Z,48.40
2023-02-25T16:38:10.903Z,49.00
2023-02-25T16:40:41.626Z,49.40
2023-02-25T16:43:15.521Z,49.70
2023-02-25T16:45:54.499Z,50.10
2023-02-25T16:48:29.776Z,50.30
2023-02-25T16:50:58.783Z,50.50
2023-02-25T16:53:28.506Z,50.80
2023-02-25T16:56:00.316Z,50.90
2023-02-25T16:58:31.205Z,50.90
2023-02-25T17:01:03.896Z,51.10
2023-02-25T17:03:47.492Z,51.40
2023-02-25T17:06:18.580Z,51.50
2023-02-25T17:08:48.906Z,51.60
2023-02-25T17:11:20.127Z,51.60
2023-02-25T17:13:49.623Z,51.90
2023-02-25T17:16:23.649Z,52.00
2023-02-25T17:18:57.196Z,52.10
2023-02-25T17:21:29.364Z,52.30
2023-02-25T17:24:00.441Z,52.50
2023-02-25T17:26:30.307Z,52.50
2023-02-25T17:29:01.656Z,52.70
2023-02-25T17:31:31.513Z,52.70
2023-02-25T17:34:03.630Z,52.90
2023-02-25T17:36:35.299Z,53.00
2023-02-25T17:39:06.176Z,53.20
2023-02-25T17:41:35.754Z,53.20
2023-02-25T17:44:04.417Z,53.50
2023-02-25T17:46:37.856Z,53.70
2023-02-25T17:49:21.322Z,53.90
2023-02-25T17:51:55.622Z,54.00
2023-02-25T17:54:26.805Z,54.10
2023-02-25T17:56:58.756Z,54.20
2023-02-25T17:59:38.864Z,54.20
2023-02-25T18:02:29.978Z,54.30
2023-02-25T18:05:22.430Z,54.50
2023-02-25T18:08:18.780Z,54.70
2023-02-25T18:10:49.679Z,54.90
2023-02-25T18:13:29.187Z,54.90
2023-02-25T18:16:34.259Z,55.00
2023-02-25T18:19:02.784Z,55.10
2023-02-25T18:21:35.384Z,55.20
2023-02-25T18:24:03.810Z,55.30
2023-02-25T18:26:32.361Z,55.50
2023-02-25T18:29:00.760Z,55.70
2023-02-25T18:31:29.286Z,55.70
2023-02-25T18:33:57.784Z,55.70
2023-02-25T18:36:29.261Z,55.70
2023-02-25T18:39:04.549Z,55.60
2023-02-25T18:41:33.695Z,55.90
2023-02-25T18:44:02.447Z,55.90
2023-02-25T18:46:30.889Z,56.10
2023-02-25T18:48:59.282Z,56.20
2023-02-25T18:51:27.743Z,56.20
2023-02-25T18:53:56.121Z,56.40
2023-02-25T18:56:26.350Z,56.40
2023-02-25T18:58:57.766Z,56.60
2023-02-25T19:01:32.023Z,56.70
2023-02-25T19:04:00.576Z,56.90
2023-02-25T19:06:32.125Z,57.10
2023-02-25T19:09:00.831Z,57.10
2023-02-25T19:11:36.072Z,57.20
2023-02-25T19:14:05.885Z,57.40
2023-02-25T19:16:34.346Z,57.40
2023-02-25T19:19:02.725Z,57.50
2023-02-25T19:21:31.959Z,57.60
2023-02-25T19:24:00.274Z,57.80
2023-02-25T19:26:30.728Z,57.90
2023-02-25T19:28:59.289Z,57.80
2023-02-25T19:31:27.752Z,57.90
2023-02-25T19:33:56.616Z,58.00
2023-02-25T19:36:25.413Z,58.10
2023-02-25T19:38:54.012Z,58.20
2023-02-25T19:41:22.511Z,58.30
2023-02-25T19:43:52.503Z,58.30
2023-02-25T19:46:20.925Z,58.50
2023-02-25T19:48:49.244Z,58.60
2023-02-25T19:51:17.698Z,58.60
2023-02-25T19:53:46.372Z,58.70
2023-02-25T19:56:14.793Z,58.70
2023-02-25T19:58:43.168Z,58.70
2023-02-25T20:01:12.955Z,58.80
2023-02-25T20:03:41.706Z,58.80
2023-02-25T20:06:13.503Z,58.80
2023-02-25T20:08:41.983Z,58.70
2023-02-25T20:11:10.796Z,58.80
2023-02-25T20:13:39.500Z,58.80
2023-02-25T20:16:09.421Z,58.80
2023-02-25T20:18:39.355Z,58.90
2023-02-25T20:21:08.021Z,58.90
2023-02-25T20:23:38.898Z,59.00
2023-02-25T20:26:10.378Z,59.10
2023-02-25T20:28:38.912Z,59.20
2023-02-25T20:31:09.477Z,59.30
2023-02-25T20:33:40.510Z,59.40
2023-02-25T20:36:20.511Z,59.40
2023-02-25T20:39:04.858Z,59.50
2023-02-25T20:41:33.296Z,59.60
2023-02-25T20:44:01.811Z,59.60
2023-02-25T20:46:30.451Z,59.70
2023-02-25T20:49:00.622Z,59.70
2023-02-25T20:51:29.593Z,59.80
2023-02-25T20:53:58.186Z,60.00
2023-02-25T20:56:30.480Z,60.10
2023-02-25T20:58:59.193Z,60.30
2023-02-25T21:01:27.516Z,60.50
2023-02-25T21:03:55.906Z,60.70
2023-02-25T21:06:27.303Z,60.90
2023-02-25T21:08:56.257Z,61.10
2023-02-25T21:11:25.482Z,61.30
2023-02-25T21:13:54.524Z,61.30
2023-02-25T21:16:24.473Z,61.40
2023-02-25T21:18:53.574Z,61.50
2023-02-25T21:21:23.218Z,61.50
2023-02-25T21:23:52.901Z,61.60
2023-02-25T21:26:21.320Z,61.70
2023-02-25T21:28:50.019Z,61.80
2023-02-25T21:31:18.580Z,62.00
2023-02-25T21:33:47.394Z,62.00
2023-02-25T21:36:15.885Z,62.10
2023-02-25T21:38:44.389Z,62.30
2023-02-25T21:41:15.861Z,62.40
2023-02-25T21:43:44.882Z,62.60
2023-02-25T21:46:17.852Z,62.70
2023-02-25T21:48:47.536Z,62.80
2023-02-25T21:51:18.116Z,63.00
2023-02-25T21:53:46.753Z,63.20
2023-02-25T21:56:18.210Z,63.40
2023-02-25T21:58:47.193Z,63.60
2023-02-25T22:01:17.257Z,63.80
2023-02-25T22:03:46.588Z,63.80
2023-02-25T22:06:15.963Z,64.00
2023-02-25T22:08:46.055Z,64.10
2023-02-25T22:11:17.353Z,64.30
2023-02-25T22:13:45.840Z,64.60
2023-02-25T22:16:16.279Z,64.80
2023-02-25T22:18:44.737Z,64.90
2023-02-25T22:21:14.358Z,65.00
2023-02-25T22:23:44.452Z,65.30
2023-02-25T22:26:15.030Z,65.50
2023-02-25T22:28:45.938Z,65.70
2023-02-25T22:31:16.486Z,65.80
2023-02-25T22:33:45.986Z,65.90
2023-02-25T22:36:15.316Z,66.00
2023-02-25T22:38:44.750Z,66.20
2023-02-25T22:41:15.492Z,66.30
2023-02-25T22:43:45.669Z,66.50
2023-02-25T22:46:15.829Z,66.60
2023-02-25T22:48:47.122Z,66.60
2023-02-25T22:51:20.478Z,66.60
2023-02-25T22:53:48.892Z,66.60
2023-02-25T22:56:17.489Z,66.80
2023-02-25T22:58:47.202Z,66.80
2023-02-25T23:01:19.403Z,67.00
2023-02-25T23:03:48.625Z,67.10
2023-02-25T23:06:20.297Z,67.20
2023-02-25T23:08:49.693Z,67.30
2023-02-25T23:11:19.914Z,67.50
2023-02-25T23:13:52.563Z,67.60
2023-02-25T23:16:24.001Z,67.60
2023-02-25T23:18:53.229Z,67.70
2023-02-25T23:21:22.133Z,67.80
2023-02-25T23:23:53.258Z,67.90
2023-02-25T23:26:24.696Z,68.00
2023-02-25T23:28:58.016Z,68.10
2023-02-25T23:31:28.956Z,68.20
2023-02-25T23:33:58.539Z,68.30
2023-02-25T23:36:28.113Z,68.40
2023-02-25T23:38:57.930Z,68.40
2023-02-25T23:41:27.613Z,68.40
2023-02-25T23:44:00.574Z,68.50
2023-02-25T23:46:32.113Z,68.70
2023-02-25T23:49:02.790Z,68.80
2023-02-25T23:51:31.916Z,68.80
2023-02-25T23:54:02.884Z,68.70
2023-02-25T23:56:32.704Z,68.60
2023-02-25T23:59:02.939Z,68.50
